Vasa, Minnesota
Current Conditions -  °F | °C
As of 12:53 AM on Monday 24 Nov 2014 (Local Time) from KSYN Reporting Station
Light Snow Light Snow  
Wind Chill: 22°   Ceiling: 1300
Heat Index: 32°   Visibility: 3mi
Dew Point: 30°   Wind: 15mph
Humidity: 92%   Direction: 300°WNW
Pressure: 29.29"   Gusts: NA
Location:  44.6055°N, 92.7163°W
Report Text: KSYN 240653Z AUTO 30013KT 3SM -SN SCT010 BKN013 OVC030 00/M01 A2929 RMK AO2 T00021010
Loading
Personal Weather Stations






























Interactive Weather Map New forecast layout! Learn more

10-Day Weather Forecast

Advertisements
Track Severe Weather on mobile